Tipton, Missouri
Current Conditions -  °F | °C
As of 10:55 AM on Friday 24 Oct 2014 (Local Time) from KVER Reporting Station
Overcast Overcast  
Wind Chill: 18°   Ceiling: 2900
Heat Index: 18°   Visibility: 10mi
Dew Point: 15°   Wind: 6mph
Humidity: 85%   Direction: 160°SSE
Pressure: 30.09"   Gusts: NA
Location:  38.66°N, 92.78°W
Report Text: KVER 241555Z AUTO 16005KT 10SM OVC029 18/15 A3009 RMK AO2 T01780153
Loading
Personal Weather Stations






























Interactive Weather Map
Tropical Storm Tracking
New forecast layout! Learn more

10-Day Weather Forecast

Advertisements
Track Severe Weather on mobile